Terminal Aerodrome Forecast
Issued by NWS

Home | Current Version | Previous Version | Text Only | Print | Product List | Glossary On
Versions: 1 2 3 4 5 6 7 8 9 10 11 12
000
FTUS45 KLKN 042325
TAFELY
TAF
KELY 042325Z 0500/0524 16020G30KT P6SM FEW120 BKN200
     FM050300 17012KT P6SM SCT200
     FM051700 17025G35KT P6SM BKN200=

USA.gov is the U.S. government's official web portal to all federal, state and local government web resources and services.